Time;durP1;ratioP1;P1;durP2;ratioP2;P2;SDS_P1;SDS_P2;PMS_P1;PMS_P2;Temp;Humidity;BMP_temperature;BMP_pressure;BME280_temperature;BME280_humidity;BME280_pressure;Samples;Min_cycle;Max_cycle;Signal;HPM_P1;HPM_P2
2022/03/29 00:01:23;;;;;;;0.10;0.10;;;;;;;;;;4960171;28;20046;-93
2022/03/29 00:03:49;;;;;;;0.00;0.00;;;;;;;;;;4960794;28;20459;-94
2022/03/29 00:06:15;;;;;;;0.10;0.10;;;;;;;;;;4960804;28;20513;-95
2022/03/29 00:08:41;;;;;;;0.10;0.10;;;;;;;;;;4960618;28;20050;-95
2022/03/29 00:11:07;;;;;;;0.10;0.10;;;;;;;;;;4960511;28;20078;-94
2022/03/29 00:13:33;;;;;;;0.10;0.10;;;;;;;;;;4960451;28;20049;-93
2022/03/29 00:15:59;;;;;;;0.10;0.10;;;;;;;;;;4976070;28;20078;-93
2022/03/29 00:18:25;;;;;;;0.10;0.10;;;;;;;;;;4977011;28;20081;-93
2022/03/29 00:20:51;;;;;;;0.10;0.10;;;;;;;;;;4964151;28;20104;-94
2022/03/29 00:23:18;;;;;;;0.95;0.25;;;;;;;;;;4980449;28;20042;-95
2022/03/29 00:25:44;;;;;;;0.10;0.10;;;;;;;;;;4964270;28;20437;-94
2022/03/29 00:28:10;;;;;;;0.10;0.10;;;;;;;;;;4980540;28;20065;-96
2022/03/29 00:30:36;;;;;;;0.10;0.10;;;;;;;;;;4964353;28;20042;-95
2022/03/29 00:33:02;;;;;;;0.10;0.10;;;;;;;;;;4964154;28;20188;-94
2022/03/29 00:38:56;;;;;;;0.10;0.10;;;;;;;;;;4939110;29;20047;-94
2022/03/29 00:41:22;;;;;;;0.10;0.10;;;;;;;;;;4946959;28;20043;-91
2022/03/29 00:43:48;;;;;;;0.10;0.10;;;;;;;;;;4985888;28;20375;-93
2022/03/29 00:46:14;;;;;;;0.10;0.10;;;;;;;;;;4979231;28;20048;-92
2022/03/29 00:48:40;;;;;;;0.10;0.10;;;;;;;;;;4979248;28;20568;-93
2022/03/29 00:51:06;;;;;;;0.32;0.20;;;;;;;;;;4979376;28;20502;-92
2022/03/29 00:53:32;;;;;;;0.05;0.05;;;;;;;;;;4963433;28;20046;-91
2022/03/29 00:55:59;;;;;;;0.10;0.10;;;;;;;;;;4979123;28;20434;-91
2022/03/29 00:58:26;;;;;;;0.10;0.10;;;;;;;;;;4963177;28;20078;-93
2022/03/29 01:00:52;;;;;;;0.10;0.10;;;;;;;;;;4963546;28;20049;-96
2022/03/29 01:03:18;;;;;;;0.10;0.10;;;;;;;;;;4963181;28;20054;-95
2022/03/29 01:05:44;;;;;;;0.10;0.10;;;;;;;;;;4963446;28;20106;-93
2022/03/29 01:08:10;;;;;;;0.10;0.10;;;;;;;;;;4963769;28;20132;-94
2022/03/29 01:10:37;;;;;;;0.10;0.10;;;;;;;;;;4979126;28;20414;-92
2022/03/29 01:13:03;;;;;;;0.10;0.10;;;;;;;;;;4962407;28;20042;-93
2022/03/29 01:15:30;;;;;;;0.20;0.20;;;;;;;;;;4963108;28;20039;-94
2022/03/29 01:17:56;;;;;;;0.35;0.30;;;;;;;;;;4962711;28;20129;-93
2022/03/29 01:20:27;;;;;;;0.10;0.10;;;;;;;;;;4962920;28;20093;-92
2022/03/29 01:22:53;;;;;;;0.10;0.10;;;;;;;;;;4962668;28;20490;-93
2022/03/29 01:25:26;;;;;;;0.10;0.10;;;;;;;;;;4962895;28;20057;-94
2022/03/29 01:27:53;;;;;;;0.30;0.20;;;;;;;;;;4963031;28;20097;-93
2022/03/29 01:30:20;;;;;;;1.35;0.47;;;;;;;;;;4962198;28;20048;-92
2022/03/29 01:32:52;;;;;;;0.10;0.10;;;;;;;;;;4962483;28;20065;-93
2022/03/29 01:35:22;;;;;;;0.10;0.10;;;;;;;;;;4978715;28;20049;-93
2022/03/29 01:37:48;;;;;;;0.10;0.10;;;;;;;;;;4978655;28;20074;-93
2022/03/29 01:40:15;;;;;;;0.10;0.10;;;;;;;;;;4962526;28;20042;-93
2022/03/29 01:42:42;;;;;;;0.10;0.10;;;;;;;;;;4978672;28;20073;-96
2022/03/29 01:45:09;;;;;;;0.10;0.10;;;;;;;;;;4962652;28;20046;-94
2022/03/29 01:47:35;;;;;;;0.10;0.10;;;;;;;;;;4962221;28;20409;-93
2022/03/29 01:50:01;;;;;;;0.20;0.20;;;;;;;;;;4978344;28;20049;-93
2022/03/29 01:52:27;;;;;;;0.10;0.10;;;;;;;;;;4961962;28;20042;-93
2022/03/29 01:54:53;;;;;;;0.10;0.10;;;;;;;;;;4962155;28;20030;-93
2022/03/29 01:57:25;;;;;;;0.10;0.10;;;;;;;;;;4961640;28;20053;-92
2022/03/29 02:02:37;;;;;;;0.10;0.10;;;;;;;;;;4977999;28;20046;-94
2022/03/29 02:05:03;;;;;;;0.20;0.20;;;;;;;;;;4961177;28;20100;-93
2022/03/29 02:07:30;;;;;;;0.10;0.10;;;;;;;;;;4978167;28;20408;-92
2022/03/29 02:09:56;;;;;;;0.10;0.10;;;;;;;;;;4977908;28;20046;-93
2022/03/29 02:12:22;;;;;;;0.10;0.10;;;;;;;;;;4977881;28;20524;-93
2022/03/29 02:14:48;;;;;;;0.10;0.10;;;;;;;;;;4961804;28;20065;-93
2022/03/29 02:17:14;;;;;;;0.10;0.10;;;;;;;;;;4961827;28;20038;-93
2022/03/29 02:19:40;;;;;;;0.10;0.10;;;;;;;;;;4961830;28;20088;-93
2022/03/29 02:22:06;;;;;;;0.20;0.20;;;;;;;;;;4962113;28;20045;-93
2022/03/29 02:24:32;;;;;;;0.10;0.10;;;;;;;;;;4977695;28;20038;-93
2022/03/29 02:26:58;;;;;;;0.20;0.20;;;;;;;;;;4961692;28;20049;-94
2022/03/29 02:29:24;;;;;;;0.10;0.10;;;;;;;;;;4961756;28;20045;-92
2022/03/29 02:31:50;;;;;;;0.50;0.50;;;;;;;;;;4961097;28;20122;-92
2022/03/29 02:34:16;;;;;;;0.10;0.10;;;;;;;;;;4961122;28;20405;-91
2022/03/29 02:36:42;;;;;;;0.10;0.10;;;;;;;;;;4961258;28;20045;-92
2022/03/29 02:39:08;;;;;;;0.10;0.10;;;;;;;;;;4977254;28;20038;-91
2022/03/29 02:41:34;;;;;;;0.10;0.10;;;;;;;;;;4976662;28;20097;-91
2022/03/29 02:44:00;;;;;;;0.20;0.20;;;;;;;;;;4960655;28;20557;-92
2022/03/29 02:46:26;;;;;;;0.10;0.10;;;;;;;;;;4961227;28;20080;-93
2022/03/29 02:48:52;;;;;;;0.10;0.10;;;;;;;;;;4961309;28;20490;-93
2022/03/29 02:51:18;;;;;;;0.10;0.10;;;;;;;;;;4977554;28;20097;-93
2022/03/29 02:53:44;;;;;;;0.10;0.10;;;;;;;;;;4960634;28;20517;-92
2022/03/29 02:56:10;;;;;;;0.10;0.10;;;;;;;;;;4960814;28;20080;-92
2022/03/29 02:58:36;;;;;;;0.20;0.20;;;;;;;;;;4977465;28;20073;-93
2022/03/29 03:01:02;;;;;;;0.10;0.10;;;;;;;;;;4961423;28;20034;-92
2022/03/29 03:03:29;;;;;;;0.10;0.10;;;;;;;;;;4976833;28;20077;-92
2022/03/29 03:05:55;;;;;;;0.10;0.10;;;;;;;;;;4977035;28;20497;-93
2022/03/29 03:08:21;;;;;;;0.10;0.10;;;;;;;;;;4961147;28;20042;-91
2022/03/29 03:10:47;;;;;;;0.20;0.20;;;;;;;;;;4977022;28;20390;-92
2022/03/29 03:13:13;;;;;;;0.20;0.20;;;;;;;;;;4960584;28;20508;-92
2022/03/29 03:15:39;;;;;;;0.13;0.13;;;;;;;;;;4960609;28;20622;-93
2022/03/29 03:18:05;;;;;;;0.10;0.10;;;;;;;;;;4977004;28;20114;-92
2022/03/29 03:20:31;;;;;;;0.10;0.10;;;;;;;;;;4961020;28;20034;-90
2022/03/29 03:22:57;;;;;;;0.20;0.20;;;;;;;;;;4976330;28;20197;-89
2022/03/29 03:25:23;;;;;;;0.10;0.10;;;;;;;;;;4960758;28;20050;-90
2022/03/29 03:27:49;;;;;;;0.10;0.10;;;;;;;;;;4961063;28;20047;-90
2022/03/29 03:30:16;;;;;;;0.10;0.10;;;;;;;;;;4961245;28;20049;-89
2022/03/29 03:32:42;;;;;;;0.10;0.10;;;;;;;;;;4960332;28;20047;-89
2022/03/29 03:35:09;;;;;;;0.10;0.10;;;;;;;;;;4977103;28;20092;-89
2022/03/29 03:37:35;;;;;;;0.10;0.10;;;;;;;;;;4981029;28;20046;-88
2022/03/29 03:40:03;;;;;;;0.10;0.10;;;;;;;;;;4965096;28;20057;-89
2022/03/29 03:42:28;;;;;;;0.10;0.10;;;;;;;;;;4966065;28;20118;-89
2022/03/29 03:44:55;;;;;;;0.10;0.10;;;;;;;;;;4983652;28;20171;-89
2022/03/29 03:47:21;;;;;;;0.10;0.10;;;;;;;;;;4982108;28;20065;-89
2022/03/29 03:49:47;;;;;;;0.10;0.10;;;;;;;;;;4967359;28;20038;-90
2022/03/29 03:52:13;;;;;;;0.10;0.10;;;;;;;;;;4963918;28;20394;-90
2022/03/29 03:54:39;;;;;;;0.10;0.10;;;;;;;;;;4964652;28;20486;-89
2022/03/29 03:57:05;;;;;;;0.10;0.10;;;;;;;;;;4965031;28;20038;-90
2022/03/29 03:59:31;;;;;;;0.10;0.10;;;;;;;;;;4964638;28;20138;-93
2022/03/29 04:01:57;;;;;;;0.10;0.10;;;;;;;;;;4964220;28;20042;-92
2022/03/29 04:04:23;;;;;;;0.10;0.10;;;;;;;;;;4979742;28;20048;-92
2022/03/29 04:06:49;;;;;;;0.10;0.10;;;;;;;;;;4964563;28;20125;-92
2022/03/29 04:09:15;;;;;;;0.10;0.10;;;;;;;;;;4964148;28;20044;-92
2022/03/29 04:11:41;;;;;;;0.10;0.10;;;;;;;;;;4964525;28;20093;-93
2022/03/29 04:14:07;;;;;;;0.10;0.10;;;;;;;;;;4964112;28;20049;-93
2022/03/29 04:16:33;;;;;;;0.10;0.10;;;;;;;;;;4964403;28;20125;-93
2022/03/29 04:18:59;;;;;;;0.10;0.10;;;;;;;;;;4964119;28;20234;-93
2022/03/29 04:21:26;;;;;;;0.22;0.22;;;;;;;;;;4964231;28;20099;-94
2022/03/29 04:23:52;;;;;;;0.35;0.20;;;;;;;;;;4964313;28;20050;-94
2022/03/29 04:26:18;;;;;;;0.10;0.10;;;;;;;;;;4963852;28;20096;-94
2022/03/29 04:28:44;;;;;;;0.10;0.10;;;;;;;;;;4980122;28;20133;-94
2022/03/29 04:31:10;;;;;;;0.10;0.10;;;;;;;;;;4964268;28;20046;-93
2022/03/29 04:33:36;;;;;;;0.10;0.10;;;;;;;;;;4980449;28;20531;-96
2022/03/29 04:36:02;;;;;;;0.10;0.10;;;;;;;;;;4964145;28;20030;-96
2022/03/29 04:38:28;;;;;;;0.43;0.38;;;;;;;;;;4964478;28;20041;-96
2022/03/29 04:40:54;;;;;;;0.22;0.22;;;;;;;;;;4963801;28;20046;-93
2022/03/29 04:43:20;;;;;;;0.10;0.10;;;;;;;;;;4962874;28;20062;-93
2022/03/29 04:45:46;;;;;;;0.10;0.10;;;;;;;;;;4963864;28;20117;-94
2022/03/29 04:48:13;;;;;;;0.20;0.20;;;;;;;;;;4964077;28;20092;-93
2022/03/29 04:50:40;;;;;;;0.47;0.47;;;;;;;;;;4963767;28;20129;-92
2022/03/29 04:53:06;;;;;;;0.10;0.10;;;;;;;;;;4963412;28;20050;-92
2022/03/29 04:55:32;;;;;;;0.10;0.10;;;;;;;;;;4963086;28;20074;-92
2022/03/29 04:58:02;;;;;;;0.10;0.10;;;;;;;;;;4962955;28;20087;-92
2022/03/29 05:00:28;;;;;;;0.10;0.10;;;;;;;;;;4963211;28;20426;-93
2022/03/29 05:02:54;;;;;;;0.10;0.10;;;;;;;;;;4962857;28;20110;-93
2022/03/29 05:05:20;;;;;;;0.10;0.10;;;;;;;;;;4978353;28;20088;-92
2022/03/29 05:07:46;;;;;;;0.32;0.32;;;;;;;;;;4979171;28;20176;-92
2022/03/29 05:10:13;;;;;;;0.10;0.10;;;;;;;;;;4978758;28;20518;-92
2022/03/29 05:12:43;;;;;;;0.47;0.45;;;;;;;;;;4963167;28;20042;-92
2022/03/29 05:15:09;;;;;;;0.10;0.10;;;;;;;;;;4962453;28;20045;-92
2022/03/29 05:17:38;;;;;;;0.10;0.10;;;;;;;;;;4979184;28;20034;-93
2022/03/29 05:20:04;;;;;;;0.10;0.10;;;;;;;;;;4979237;28;20045;-93
2022/03/29 05:22:30;;;;;;;0.13;0.13;;;;;;;;;;4962907;28;20069;-93
2022/03/29 05:24:56;;;;;;;0.25;0.25;;;;;;;;;;4961885;28;20038;-93
2022/03/29 05:27:23;;;;;;;0.10;0.10;;;;;;;;;;4962375;28;20508;-94
2022/03/29 05:29:49;;;;;;;0.10;0.10;;;;;;;;;;4978466;28;20074;-93
2022/03/29 05:32:18;;;;;;;0.10;0.10;;;;;;;;;;4963042;28;20048;-92
2022/03/29 05:34:45;;;;;;;0.10;0.10;;;;;;;;;;4978688;28;20042;-93
2022/03/29 05:37:12;;;;;;;0.10;0.10;;;;;;;;;;4962746;28;20513;-93
2022/03/29 05:39:40;;;;;;;0.20;0.20;;;;;;;;;;4962784;28;20039;-93
2022/03/29 05:42:06;;;;;;;0.10;0.10;;;;;;;;;;4980176;28;20096;-94
2022/03/29 05:44:32;;;;;;;0.10;0.10;;;;;;;;;;4978602;28;20690;-93
2022/03/29 05:49:42;;;;;;;0.10;0.10;;;;;;;;;;4978220;28;20046;-92
2022/03/29 05:52:08;;;;;;;0.10;0.10;;;;;;;;;;4962278;28;20049;-92
2022/03/29 05:54:35;;;;;;;0.10;0.10;;;;;;;;;;4961971;28;20132;-93
2022/03/29 05:57:01;;;;;;;0.10;0.10;;;;;;;;;;4962248;28;20390;-91
2022/03/29 05:59:27;;;;;;;0.10;0.10;;;;;;;;;;4977940;28;20130;-91
2022/03/29 06:01:53;;;;;;;0.10;0.10;;;;;;;;;;4962101;28;20038;-92
2022/03/29 06:04:22;;;;;;;0.10;0.10;;;;;;;;;;4961981;28;20053;-92
2022/03/29 06:06:49;;;;;;;0.10;0.10;;;;;;;;;;4961963;28;20486;-94
2022/03/29 06:09:15;;;;;;;0.10;0.10;;;;;;;;;;4978232;28;20042;-91
2022/03/29 06:11:42;;;;;;;0.10;0.10;;;;;;;;;;4977242;28;20068;-93
2022/03/29 06:14:10;;;;;;;0.10;0.10;;;;;;;;;;4978037;28;20482;-94
2022/03/29 06:16:36;;;;;;;0.20;0.20;;;;;;;;;;4977097;28;20042;-93
2022/03/29 06:19:02;;;;;;;0.20;0.20;;;;;;;;;;4962132;28;20108;-93
2022/03/29 06:21:28;;;;;;;0.10;0.10;;;;;;;;;;4977842;28;20038;-91
2022/03/29 06:23:54;;;;;;;0.10;0.10;;;;;;;;;;4961599;28;20042;-93
2022/03/29 06:26:20;;;;;;;0.10;0.10;;;;;;;;;;4961096;28;20509;-95
2022/03/29 06:28:47;;;;;;;0.10;0.10;;;;;;;;;;4961708;28;20049;-95
2022/03/29 06:31:13;;;;;;;0.10;0.10;;;;;;;;;;4961902;28;20050;-93
2022/03/29 06:33:39;;;;;;;0.10;0.10;;;;;;;;;;4961924;28;20046;-93
2022/03/29 06:36:05;;;;;;;0.10;0.10;;;;;;;;;;4961588;28;20121;-94
2022/03/29 06:38:32;;;;;;;0.20;0.20;;;;;;;;;;4977595;28;20048;-93
2022/03/29 06:40:59;;;;;;;0.10;0.10;;;;;;;;;;4961514;28;20049;-93
2022/03/29 06:43:27;;;;;;;0.10;0.10;;;;;;;;;;4961354;28;20104;-93
2022/03/29 06:45:53;;;;;;;0.10;0.10;;;;;;;;;;4961949;28;20034;-93
2022/03/29 06:48:19;;;;;;;0.10;0.10;;;;;;;;;;4961620;28;20042;-96
2022/03/29 06:50:45;;;;;;;0.10;0.10;;;;;;;;;;4961440;28;20436;-93
2022/03/29 06:53:11;;;;;;;0.10;0.10;;;;;;;;;;4960641;28;20379;-91
2022/03/29 06:55:37;;;;;;;0.10;0.10;;;;;;;;;;4960666;28;20039;-91
2022/03/29 06:58:03;;;;;;;0.10;0.10;;;;;;;;;;4960641;28;20038;-92
2022/03/29 07:00:29;;;;;;;0.10;0.10;;;;;;;;;;4961293;28;20030;-93
2022/03/29 07:02:55;;;;;;;0.10;0.10;;;;;;;;;;4960584;28;20048;-92
2022/03/29 07:05:22;;;;;;;0.10;0.10;;;;;;;;;;4960947;28;20074;-91
2022/03/29 07:07:48;;;;;;;0.10;0.10;;;;;;;;;;4976548;28;20092;-92
2022/03/29 07:13:02;;;;;;;0.10;0.10;;;;;;;;;;4976777;28;20483;-93
2022/03/29 07:15:28;;;;;;;0.10;0.10;;;;;;;;;;4960687;28;20039;-93
2022/03/29 07:17:54;;;;;;;0.10;0.10;;;;;;;;;;4960722;28;20038;-92
2022/03/29 07:20:20;;;;;;;0.10;0.10;;;;;;;;;;4961103;28;20080;-92
2022/03/29 07:22:47;;;;;;;0.10;0.10;;;;;;;;;;4959268;28;20573;-90
2022/03/29 07:25:13;;;;;;;0.10;0.10;;;;;;;;;;4960671;28;20061;-90
2022/03/29 07:27:39;;;;;;;0.10;0.10;;;;;;;;;;4958502;28;20050;-90
2022/03/29 07:30:06;;;;;;;0.10;0.10;;;;;;;;;;4949072;28;20283;-90
2022/03/29 07:32:32;;;;;;;0.10;0.10;;;;;;;;;;4964505;28;20516;-89
2022/03/29 07:35:02;;;;;;;0.10;0.10;;;;;;;;;;4948055;28;20050;-91
2022/03/29 07:37:28;;;;;;;0.10;0.10;;;;;;;;;;4947433;28;20121;-88
2022/03/29 07:39:54;;;;;;;0.10;0.10;;;;;;;;;;4947701;28;20486;-89
2022/03/29 07:42:21;;;;;;;0.10;0.10;;;;;;;;;;4941398;29;20615;-92
2022/03/29 07:44:50;;;;;;;0.10;0.10;;;;;;;;;;4942343;29;20047;-93
2022/03/29 07:47:17;;;;;;;0.30;0.22;;;;;;;;;;4926299;29;20043;-94
2022/03/29 07:49:43;;;;;;;0.10;0.10;;;;;;;;;;4926221;29;20527;-95
2022/03/29 07:52:12;;;;;;;0.10;0.10;;;;;;;;;;4928632;29;20039;-96
2022/03/29 07:54:40;;;;;;;0.10;0.10;;;;;;;;;;4950382;29;20039;-92
2022/03/29 07:57:09;;;;;;;0.10;0.10;;;;;;;;;;4906223;28;20098;-96
2022/03/29 07:59:46;;;;;;;0.13;0.13;;;;;;;;;;4956642;29;20047;-92
2022/03/29 08:02:12;;;;;;;0.10;0.10;;;;;;;;;;4941933;29;20097;-93
2022/03/29 08:04:38;;;;;;;0.10;0.10;;;;;;;;;;4942082;29;20039;-95
2022/03/29 08:07:04;;;;;;;0.10;0.10;;;;;;;;;;4941672;29;20510;-96
2022/03/29 08:09:32;;;;;;;0.10;0.10;;;;;;;;;;4941786;29;20043;-95
2022/03/29 08:11:58;;;;;;;0.55;0.20;;;;;;;;;;4941411;29;20043;-94
2022/03/29 08:14:26;;;;;;;0.10;0.10;;;;;;;;;;4941195;29;20125;-94
2022/03/29 08:16:56;;;;;;;0.22;0.22;;;;;;;;;;4941243;29;20043;-95
2022/03/29 08:19:31;;;;;;;0.20;0.20;;;;;;;;;;4942530;29;20039;-94
2022/03/29 08:21:57;;;;;;;0.10;0.10;;;;;;;;;;4941065;28;20046;-91
2022/03/29 08:24:23;;;;;;;0.10;0.10;;;;;;;;;;4944963;28;20051;-93
2022/03/29 08:26:50;;;;;;;0.10;0.10;;;;;;;;;;4941115;28;20154;-93
2022/03/29 08:29:21;;;;;;;0.20;0.20;;;;;;;;;;4942354;29;20039;-94
2022/03/29 08:31:52;;;;;;;0.28;0.28;;;;;;;;;;4942130;29;20039;-95
2022/03/29 08:34:18;;;;;;;0.10;0.10;;;;;;;;;;4942858;28;20047;-94
2022/03/29 08:36:44;;;;;;;0.15;0.15;;;;;;;;;;4926082;29;20078;-95
2022/03/29 08:39:10;;;;;;;0.43;0.43;;;;;;;;;;4940663;28;20094;-94
2022/03/29 08:41:40;;;;;;;0.10;0.10;;;;;;;;;;4941764;29;20122;-92
2022/03/29 08:44:07;;;;;;;0.10;0.10;;;;;;;;;;4976537;28;20057;-93
2022/03/29 08:46:38;;;;;;;0.10;0.10;;;;;;;;;;4963843;28;20050;-93
2022/03/29 08:49:05;;;;;;;0.10;0.10;;;;;;;;;;4979874;28;20081;-92
2022/03/29 08:51:31;;;;;;;0.10;0.10;;;;;;;;;;4963796;28;20081;-92
2022/03/29 08:53:57;;;;;;;0.10;0.10;;;;;;;;;;4963294;28;20046;-94
2022/03/29 08:56:23;;;;;;;0.20;0.20;;;;;;;;;;4963670;28;20406;-92
2022/03/29 08:58:49;;;;;;;0.10;0.10;;;;;;;;;;4963892;28;20038;-92
2022/03/29 09:01:20;;;;;;;0.10;0.10;;;;;;;;;;4964059;28;20078;-91
2022/03/29 09:04:03;;;;;;;0.20;0.20;;;;;;;;;;4964211;28;20129;-92
2022/03/29 09:06:29;;;;;;;0.10;0.10;;;;;;;;;;4963918;28;20043;-93
2022/03/29 09:08:55;;;;;;;0.32;0.20;;;;;;;;;;4963266;28;20069;-92
2022/03/29 09:11:21;;;;;;;0.32;0.32;;;;;;;;;;4963299;28;20494;-92
2022/03/29 09:13:48;;;;;;;0.25;0.25;;;;;;;;;;4963254;28;20049;-93
2022/03/29 09:16:46;;;;;;;0.30;0.30;;;;;;;;;;4963321;28;20038;-93
2022/03/29 09:19:12;;;;;;;0.30;0.30;;;;;;;;;;4937553;28;20137;-92
2022/03/29 09:21:45;;;;;;;0.10;0.10;;;;;;;;;;4995695;28;20042;-93
2022/03/29 09:24:11;;;;;;;0.30;0.30;;;;;;;;;;4963475;28;20042;-93
2022/03/29 09:26:38;;;;;;;0.10;0.10;;;;;;;;;;4979036;28;20038;-92
2022/03/29 09:29:11;;;;;;;0.10;0.10;;;;;;;;;;4979093;28;20042;-92
2022/03/29 09:31:37;;;;;;;0.10;0.10;;;;;;;;;;4962667;28;20072;-92
2022/03/29 09:34:16;;;;;;;0.30;0.30;;;;;;;;;;4978825;28;20504;-93
2022/03/29 09:36:43;;;;;;;0.10;0.10;;;;;;;;;;4962157;28;20061;-93
2022/03/29 09:39:10;;;;;;;0.20;0.20;;;;;;;;;;4962790;28;20038;-94
2022/03/29 09:41:37;;;;;;;0.10;0.10;;;;;;;;;;4962656;28;20070;-92
2022/03/29 09:44:10;;;;;;;0.25;0.25;;;;;;;;;;4962743;28;20058;-92
2022/03/29 09:46:36;;;;;;;;;;;;;;;;;;4962984;28;20524;-94
2022/03/29 09:49:12;;;;;;;0.10;0.10;;;;;;;;;;4978659;28;19917;-94
2022/03/29 09:51:42;;;;;;;0.10;0.10;;;;;;;;;;4963011;28;20050;-93
2022/03/29 09:54:08;;;;;;;0.30;0.30;;;;;;;;;;4962435;28;20533;-92
2022/03/29 09:56:35;;;;;;;0.10;0.10;;;;;;;;;;4962008;28;20125;-93
2022/03/29 09:59:02;;;;;;;0.10;0.10;;;;;;;;;;4962791;28;20082;-94
2022/03/29 10:01:28;;;;;;;0.10;0.10;;;;;;;;;;4962451;28;20048;-93
2022/03/29 10:03:54;;;;;;;0.10;0.10;;;;;;;;;;4962924;28;20121;-93
2022/03/29 10:06:23;;;;;;;0.52;0.20;;;;;;;;;;4962131;28;20069;-93
2022/03/29 10:11:39;;;;;;;0.20;0.20;;;;;;;;;;4981069;28;20136;-93
2022/03/29 10:14:06;;;;;;;0.30;0.20;;;;;;;;;;4962102;28;20073;-93
2022/03/29 10:16:32;;;;;;;1.40;0.47;;;;;;;;;;4982270;28;20038;-93
2022/03/29 10:18:58;;;;;;;0.10;0.10;;;;;;;;;;4967959;28;20052;-92
2022/03/29 10:21:24;;;;;;;0.50;0.50;;;;;;;;;;4966428;28;20482;-94
2022/03/29 10:23:51;;;;;;;0.30;0.30;;;;;;;;;;4968236;28;20033;-92
2022/03/29 10:26:18;;;;;;;0.20;0.20;;;;;;;;;;4964091;28;20048;-93
2022/03/29 10:28:51;;;;;;;0.10;0.10;;;;;;;;;;4961505;28;20221;-92
2022/03/29 10:31:17;;;;;;;;;;;;;;;;;;4962354;28;20042;-93
2022/03/29 10:33:43;;;;;;;0.20;0.20;;;;;;;;;;4977954;28;19932;-94
2022/03/29 10:36:09;;;;;;;0.55;0.55;;;;;;;;;;4961627;28;20053;-92
2022/03/29 10:38:44;;;;;;;0.17;0.17;;;;;;;;;;4962060;28;20093;-93
2022/03/29 10:41:29;;;;;;;0.60;0.60;;;;;;;;;;4977744;28;20110;-93
2022/03/29 10:44:04;;;;;;;0.52;0.22;;;;;;;;;;4977163;28;20062;-93
2022/03/29 10:46:38;;;;;;;0.20;0.20;;;;;;;;;;4977649;28;20050;-93
2022/03/29 10:49:22;;;;;;;0.30;0.30;;;;;;;;;;4961441;28;20046;-94
2022/03/29 10:51:49;;;;;;;0.13;0.13;;;;;;;;;;4993952;28;20578;-93
2022/03/29 10:54:32;;;;;;;0.10;0.10;;;;;;;;;;4961495;28;20035;-93
2022/03/29 10:57:02;;;;;;;0.10;0.10;;;;;;;;;;4961538;28;20042;-92
2022/03/29 10:59:29;;;;;;;0.20;0.20;;;;;;;;;;4961474;28;20479;-92
2022/03/29 11:02:08;;;;;;;0.10;0.10;;;;;;;;;;4961152;28;20494;-92
2022/03/29 11:04:34;;;;;;;0.10;0.10;;;;;;;;;;4960680;28;20055;-92
2022/03/29 11:07:06;;;;;;;0.10;0.10;;;;;;;;;;4976968;28;20042;-93
2022/03/29 11:09:32;;;;;;;0.68;0.28;;;;;;;;;;4977103;28;20054;-93
2022/03/29 11:12:03;;;;;;;0.10;0.10;;;;;;;;;;4961381;28;20052;-93
2022/03/29 11:14:39;;;;;;;0.10;0.10;;;;;;;;;;4961491;28;20047;-93
2022/03/29 11:17:05;;;;;;;0.10;0.10;;;;;;;;;;4977131;28;20038;-94
2022/03/29 11:19:42;;;;;;;0.15;0.15;;;;;;;;;;4976938;28;20049;-93
2022/03/29 11:22:28;;;;;;;0.22;0.22;;;;;;;;;;4976881;28;20574;-93
2022/03/29 11:24:55;;;;;;;0.10;0.10;;;;;;;;;;4977415;28;20050;-94
2022/03/29 11:27:26;;;;;;;0.13;0.13;;;;;;;;;;4961143;28;20149;-93
2022/03/29 11:29:52;;;;;;;0.20;0.20;;;;;;;;;;4961273;28;20375;-93
2022/03/29 11:32:18;;;;;;;0.10;0.10;;;;;;;;;;4960752;28;20133;-93
2022/03/29 11:34:44;;;;;;;0.10;0.10;;;;;;;;;;4960761;28;20042;-92
2022/03/29 11:37:29;;;;;;;0.10;0.10;;;;;;;;;;4961550;28;20038;-94
2022/03/29 11:39:56;;;;;;;0.20;0.20;;;;;;;;;;4961241;28;20390;-93
2022/03/29 11:42:22;;;;;;;0.40;0.40;;;;;;;;;;4960630;28;20137;-94
2022/03/29 11:44:48;;;;;;;0.10;0.10;;;;;;;;;;4976812;28;20046;-92
2022/03/29 11:47:14;;;;;;;11.10;1.05;;;;;;;;;;4961298;28;20506;-92
2022/03/29 11:49:40;;;;;;;1.27;1.27;;;;;;;;;;4960930;28;20137;-93
2022/03/29 11:52:13;;;;;;;0.10;0.10;;;;;;;;;;4961116;28;20052;-92
2022/03/29 11:54:44;;;;;;;0.10;0.10;;;;;;;;;;4960503;28;20137;-93
2022/03/29 11:57:19;;;;;;;3.47;0.38;;;;;;;;;;4976506;28;20035;-93
2022/03/29 11:59:45;;;;;;;0.22;0.22;;;;;;;;;;4960543;28;20042;-92
2022/03/29 12:02:11;;;;;;;0.20;0.20;;;;;;;;;;4960291;28;20034;-92
2022/03/29 12:04:38;;;;;;;0.10;0.10;;;;;;;;;;4960461;28;20046;-93
2022/03/29 12:07:04;;;;;;;1.35;0.50;;;;;;;;;;4976600;28;20046;-92
2022/03/29 12:09:31;;;;;;;0.10;0.10;;;;;;;;;;4960490;28;20113;-92
2022/03/29 12:11:59;;;;;;;0.20;0.20;;;;;;;;;;4960937;28;20039;-93
2022/03/29 12:14:25;;;;;;;0.20;0.20;;;;;;;;;;4962904;28;20078;-93
2022/03/29 12:16:57;;;;;;;0.10;0.10;;;;;;;;;;4963697;28;20106;-92
2022/03/29 12:19:25;;;;;;;0.17;0.17;;;;;;;;;;4964737;28;20092;-93
2022/03/29 12:21:56;;;;;;;0.40;0.40;;;;;;;;;;4964274;28;20042;-94
2022/03/29 12:24:23;;;;;;;0.35;0.35;;;;;;;;;;4964212;28;20046;-92
2022/03/29 12:26:50;;;;;;;0.20;0.20;;;;;;;;;;4964047;28;20136;-92
2022/03/29 12:29:20;;;;;;;0.35;0.35;;;;;;;;;;4964273;28;20053;-93
2022/03/29 12:31:46;;;;;;;0.65;0.30;;;;;;;;;;4980336;28;20108;-93
2022/03/29 12:34:14;;;;;;;0.38;0.20;;;;;;;;;;4964000;28;20050;-92
2022/03/29 12:36:49;;;;;;;0.30;0.30;;;;;;;;;;4964091;28;20467;-92
2022/03/29 12:39:15;;;;;;;0.38;0.38;;;;;;;;;;4963727;28;20049;-92
2022/03/29 12:41:41;;;;;;;0.15;0.15;;;;;;;;;;4963560;28;20047;-93
2022/03/29 12:44:10;;;;;;;0.40;0.40;;;;;;;;;;4963351;28;20066;-92
2022/03/29 12:46:37;;;;;;;0.75;0.63;;;;;;;;;;4963437;28;20502;-92
2022/03/29 12:49:03;;;;;;;0.17;0.17;;;;;;;;;;4963627;28;20121;-92
2022/03/29 12:51:30;;;;;;;0.15;0.15;;;;;;;;;;4962886;28;20049;-92
2022/03/29 12:54:06;;;;;;;0.13;0.13;;;;;;;;;;4963273;28;20438;-93
2022/03/29 12:56:36;;;;;;;0.10;0.10;;;;;;;;;;4963248;28;20040;-92
2022/03/29 12:59:22;;;;;;;0.10;0.10;;;;;;;;;;4963353;28;20049;-93
2022/03/29 13:01:48;;;;;;;0.20;0.20;;;;;;;;;;4978374;28;20112;-94
2022/03/29 13:04:14;;;;;;;1.55;0.47;;;;;;;;;;4963452;28;20050;-93
2022/03/29 13:06:41;;;;;;;0.75;0.75;;;;;;;;;;4963514;28;20218;-92
2022/03/29 13:09:07;;;;;;;0.30;0.30;;;;;;;;;;4963605;28;20069;-92
2022/03/29 13:11:33;;;;;;;0.10;0.10;;;;;;;;;;4963271;28;20486;-93
2022/03/29 13:14:06;;;;;;;0.10;0.10;;;;;;;;;;4962911;28;20554;-92
2022/03/29 13:16:32;;;;;;;0.30;0.30;;;;;;;;;;4963201;28;20039;-92
2022/03/29 13:18:58;;;;;;;0.10;0.10;;;;;;;;;;4962474;28;20091;-92
2022/03/29 13:21:28;;;;;;;0.10;0.10;;;;;;;;;;4962694;28;20042;-92
2022/03/29 13:23:55;;;;;;;0.10;0.10;;;;;;;;;;4962874;28;20050;-93
2022/03/29 13:26:21;;;;;;;0.20;0.20;;;;;;;;;;4962101;28;20517;-93
2022/03/29 13:28:48;;;;;;;1.95;0.20;;;;;;;;;;4963062;28;20043;-92
2022/03/29 13:31:14;;;;;;;0.10;0.10;;;;;;;;;;4978742;28;20146;-93
2022/03/29 13:33:44;;;;;;;1.27;0.60;;;;;;;;;;4962685;28;20039;-93
2022/03/29 13:36:11;;;;;;;0.10;0.10;;;;;;;;;;4962850;28;20039;-93
2022/03/29 13:38:37;;;;;;;1.02;0.55;;;;;;;;;;4963230;28;20038;-93
2022/03/29 13:41:03;;;;;;;0.70;0.52;;;;;;;;;;4978603;28;20156;-94
2022/03/29 13:43:29;;;;;;;0.20;0.20;;;;;;;;;;4978353;28;20480;-92
2022/03/29 13:45:55;;;;;;;0.10;0.10;;;;;;;;;;4961903;28;20056;-92
2022/03/29 13:48:21;;;;;;;0.10;0.10;;;;;;;;;;4962720;28;20406;-93
2022/03/29 13:50:47;;;;;;;0.35;0.35;;;;;;;;;;4962507;28;20049;-92
2022/03/29 13:53:15;;;;;;;0.10;0.10;;;;;;;;;;4962557;28;20050;-93
2022/03/29 13:55:41;;;;;;;0.63;0.63;;;;;;;;;;4962088;28;20067;-94
2022/03/29 13:58:07;;;;;;;0.55;0.55;;;;;;;;;;4978205;28;20046;-92
2022/03/29 14:00:37;;;;;;;0.10;0.10;;;;;;;;;;4978670;28;20136;-93
2022/03/29 14:03:05;;;;;;;0.10;0.10;;;;;;;;;;4978328;28;20092;-93
2022/03/29 14:05:31;;;;;;;0.30;0.30;;;;;;;;;;4961933;28;20088;-93
2022/03/29 14:07:57;;;;;;;0.20;0.20;;;;;;;;;;4994298;28;20101;-93
2022/03/29 14:10:23;;;;;;;0.10;0.10;;;;;;;;;;4978149;28;20050;-92
2022/03/29 14:12:49;;;;;;;0.10;0.10;;;;;;;;;;4962488;28;20430;-92
2022/03/29 14:15:15;;;;;;;0.20;0.20;;;;;;;;;;4961944;28;20043;-94
2022/03/29 14:17:41;;;;;;;0.20;0.20;;;;;;;;;;4962421;28;20050;-93
2022/03/29 14:20:07;;;;;;;1.15;1.13;;;;;;;;;;4962100;28;20038;-92
2022/03/29 14:22:34;;;;;;;0.30;0.30;;;;;;;;;;4962341;28;20038;-93
2022/03/29 14:25:01;;;;;;;0.17;0.17;;;;;;;;;;4961225;28;20082;-92
2022/03/29 14:27:27;;;;;;;0.10;0.10;;;;;;;;;;4961107;28;20042;-92
2022/03/29 14:29:53;;;;;;;0.20;0.20;;;;;;;;;;4961400;28;20578;-93
2022/03/29 14:32:19;;;;;;;3.10;0.43;;;;;;;;;;4977813;28;20052;-93
2022/03/29 14:34:47;;;;;;;0.20;0.20;;;;;;;;;;4961635;28;20049;-92
2022/03/29 14:37:13;;;;;;;0.10;0.10;;;;;;;;;;4961294;28;20049;-93
2022/03/29 14:39:39;;;;;;;0.20;0.20;;;;;;;;;;4961662;28;20046;-92
2022/03/29 14:42:05;;;;;;;0.10;0.10;;;;;;;;;;4961218;28;20506;-93
2022/03/29 14:44:31;;;;;;;0.10;0.10;;;;;;;;;;4961584;28;20046;-93
2022/03/29 14:46:57;;;;;;;0.10;0.10;;;;;;;;;;4960972;28;20053;-94
2022/03/29 14:49:27;;;;;;;0.10;0.10;;;;;;;;;;4961607;28;20104;-92
2022/03/29 14:51:56;;;;;;;0.13;0.13;;;;;;;;;;4961719;28;20104;-92
2022/03/29 14:54:22;;;;;;;0.20;0.20;;;;;;;;;;4961601;28;20042;-93
2022/03/29 14:56:48;;;;;;;0.10;0.10;;;;;;;;;;4961412;28;20042;-93
2022/03/29 14:59:14;;;;;;;0.17;0.17;;;;;;;;;;4961639;28;20038;-93